Time;durP1;ratioP1;P1;durP2;ratioP2;P2;SDS_P1;SDS_P2;PMS_P1;PMS_P2;Temp;Humidity;BMP_temperature;BMP_pressure;BME280_temperature;BME280_humidity;BME280_pressure;Samples;Min_cycle;Max_cycle;Signal;HPM_P1;HPM_P2
2022/06/02 00:01:06;;;;;;;21.73;13.38;;;;;;;9.52;100.00;101944.59;5015542;28;20041;-44
2022/06/02 00:03:43;;;;;;;22.58;13.43;;;;;;;9.46;100.00;101939.78;5016102;28;20039;-48
2022/06/02 00:06:42;;;;;;;21.65;13.75;;;;;;;9.45;100.00;101941.59;5015877;28;20057;-47
2022/06/02 00:09:40;;;;;;;21.00;13.65;;;;;;;9.43;100.00;101942.69;5018200;28;20037;-48
2022/06/02 00:12:12;;;;;;;22.95;13.32;;;;;;;9.36;100.00;101944.19;4981887;28;20061;-43
2022/06/02 00:14:45;;;;;;;24.80;15.20;;;;;;;9.27;100.00;101946.63;5028418;28;20048;-47
2022/06/02 00:17:38;;;;;;;24.20;14.05;;;;;;;9.26;100.00;101950.25;5035038;28;20035;-44
2022/06/02 00:20:14;;;;;;;26.55;13.77;;;;;;;9.24;100.00;101948.69;5030430;28;20523;-44
2022/06/02 00:23:25;;;;;;;22.25;12.95;;;;;;;9.21;100.00;101946.28;5033709;28;20186;-44
2022/06/02 00:26:12;;;;;;;22.80;13.43;;;;;;;9.19;100.00;101945.56;5034540;28;20021;-43
2022/06/02 00:28:53;;;;;;;26.73;13.50;;;;;;;9.21;100.00;101954.28;5018155;28;20049;-44
2022/06/02 00:31:41;;;;;;;25.73;13.50;;;;;;;9.21;100.00;101955.09;5015592;28;20519;-46
2022/06/02 00:34:09;;;;;;;22.77;13.95;;;;;;;9.19;100.00;101962.38;5012224;28;20116;-43
2022/06/02 00:37:01;;;;;;;24.35;14.18;;;;;;;9.18;100.00;101963.34;5019605;28;20024;-47
2022/06/02 00:39:30;;;;;;;24.52;14.23;;;;;;;9.18;100.00;101963.34;5019139;28;20112;-45
2022/06/02 00:42:11;;;;;;;27.83;15.00;;;;;;;9.17;100.00;101967.00;5017962;28;20132;-44
2022/06/02 00:44:50;;;;;;;24.23;15.05;;;;;;;9.11;100.00;101963.03;5019376;28;20083;-45
2022/06/02 00:47:43;;;;;;;27.08;14.77;;;;;;;9.09;100.00;101967.59;5019012;28;20566;-45
2022/06/02 00:50:29;;;;;;;31.10;15.25;;;;;;;9.08;100.00;101976.59;5012366;28;20029;-43
2022/06/02 00:53:19;;;;;;;27.88;15.75;;;;;;;9.09;100.00;101969.44;5018464;28;20056;-44
2022/06/02 00:59:41;;;;;;;28.98;15.50;;;;;;;8.98;100.00;101970.31;4988511;28;20483;-44
2022/06/02 01:02:06;;;;;;;27.40;15.57;;;;;;;8.93;100.00;101969.84;5016889;28;20030;-46
2022/06/02 01:04:42;;;;;;;29.52;15.80;;;;;;;8.91;100.00;101969.09;5018094;28;20025;-46
2022/06/02 01:07:40;;;;;;;24.02;15.18;;;;;;;8.89;100.00;101965.69;5018698;28;20515;-47
2022/06/02 01:10:24;;;;;;;25.90;15.05;;;;;;;8.82;100.00;101957.34;5018142;28;20399;-48
2022/06/02 01:13:08;;;;;;;26.42;15.25;;;;;;;8.82;100.00;101956.50;5017573;28;20322;-48
2022/06/02 01:15:51;;;;;;;27.45;14.95;;;;;;;8.79;100.00;101957.59;5019181;28;20471;-47
2022/06/02 01:19:11;;;;;;;28.38;15.60;;;;;;;8.76;100.00;101965.84;5018505;28;20123;-45
2022/06/02 01:22:13;;;;;;;26.65;15.68;;;;;;;8.73;100.00;101958.09;5007705;28;20048;-47
2022/06/02 01:24:57;;;;;;;;;;;;;;;8.77;100.00;101962.19;5018404;28;20056;-47
2022/06/02 01:27:50;;;;;;;26.98;14.75;;;;;;;8.66;100.00;101959.56;5017587;28;20697;-47
2022/06/02 01:30:34;;;;;;;28.55;13.57;;;;;;;8.62;100.00;101969.56;5018049;28;20029;-44
2022/06/02 01:33:12;;;;;;;31.67;14.73;;;;;;;8.61;100.00;101967.91;5018003;28;20025;-49
2022/06/02 01:35:56;;;;;;;26.00;14.48;;;;;;;8.57;100.00;101967.28;5018277;28;20488;-46
2022/06/02 01:38:33;;;;;;;26.23;14.82;;;;;;;8.52;100.00;101972.13;5017670;28;20428;-44
2022/06/02 01:41:14;;;;;;;27.27;15.38;;;;;;;8.51;100.00;101965.09;5018686;28;20181;-47
2022/06/02 01:43:58;;;;;;;22.75;14.63;;;;;;;8.50;100.00;101966.09;5018272;28;20037;-48
2022/06/02 01:46:41;;;;;;;23.73;14.50;;;;;;;8.47;100.00;101965.44;5018433;28;20052;-47
2022/06/02 01:49:12;;;;;;;23.25;13.20;;;;;;;8.46;100.00;101961.13;5017145;28;20388;-46
2022/06/02 01:51:43;;;;;;;23.63;14.20;;;;;;;8.42;100.00;101968.47;5017111;28;20092;-44
2022/06/02 01:54:38;;;;;;;24.67;13.48;;;;;;;8.36;100.00;101960.94;5018096;28;20495;-46
2022/06/02 01:57:17;;;;;;;32.38;13.32;;;;;;;8.29;100.00;101960.56;5016956;28;20049;-43
2022/06/02 02:00:21;;;;;;;24.63;14.82;;;;;;;8.24;100.00;101959.25;5018135;28;20415;-47
2022/06/02 02:03:04;;;;;;;24.17;14.35;;;;;;;8.20;100.00;101961.28;5017262;28;20118;-47
2022/06/02 02:05:58;;;;;;;27.00;14.93;;;;;;;8.24;100.00;101959.25;5017871;28;20100;-44
2022/06/02 02:08:31;;;;;;;30.65;15.18;;;;;;;8.21;100.00;101960.31;4980833;28;20029;-45
2022/06/02 02:11:44;;;;;;;34.20;15.93;;;;;;;8.14;100.00;101961.75;5016380;28;20025;-44
2022/06/02 02:14:37;;;;;;;34.50;15.77;;;;;;;8.05;100.00;101963.31;4903797;29;20023;-44
2022/06/02 02:17:17;;;;;;;30.55;15.45;;;;;;;7.98;100.00;101968.25;5017515;28;20021;-48
2022/06/02 02:19:55;;;;;;;31.17;15.98;;;;;;;7.97;100.00;101968.34;5016862;28;20025;-46
2022/06/02 02:22:41;;;;;;;30.70;16.70;;;;;;;7.96;100.00;101971.97;5017254;28;20410;-43
2022/06/02 02:25:16;;;;;;;32.10;17.45;;;;;;;8.00;100.00;101968.97;5017476;28;20040;-47
2022/06/02 02:28:07;;;;;;;33.33;17.17;;;;;;;8.02;100.00;101974.19;5016062;28;20058;-42
2022/06/02 02:30:39;;;;;;;29.00;17.52;;;;;;;8.02;100.00;101974.19;5017389;28;20041;-46
2022/06/02 02:33:17;;;;;;;31.42;16.92;;;;;;;8.01;100.00;101969.81;5017096;28;20180;-44
2022/06/02 02:36:08;;;;;;;27.77;15.38;;;;;;;7.96;100.00;101974.63;5018100;28;20021;-44
2022/06/02 02:38:42;;;;;;;31.73;15.98;;;;;;;7.93;100.00;101965.09;5017105;28;20112;-45
2022/06/02 02:41:16;;;;;;;34.63;16.77;;;;;;;7.91;100.00;101969.69;5015223;28;20029;-46
2022/06/02 02:43:51;;;;;;;30.27;17.25;;;;;;;7.91;100.00;101974.13;5016034;28;20175;-47
2022/06/02 02:46:42;;;;;;;31.08;17.55;;;;;;;7.90;100.00;101983.09;5015850;28;20026;-47
2022/06/02 02:49:23;;;;;;;30.92;17.60;;;;;;;7.87;100.00;101975.34;5015492;28;20037;-44
2022/06/02 02:52:05;;;;;;;30.38;16.95;;;;;;;7.72;100.00;101982.66;5016870;28;20111;-45
2022/06/02 02:54:43;;;;;;;27.55;16.38;;;;;;;7.56;100.00;101986.44;5017058;28;20025;-44
2022/06/02 02:57:53;;;;;;;31.40;16.15;;;;;;;7.49;100.00;101989.69;5016117;28;20024;-46
2022/06/02 03:00:28;;;;;;;28.73;16.48;;;;;;;7.36;100.00;101993.22;5016176;28;20327;-44
2022/06/02 03:03:11;;;;;;;33.22;17.77;;;;;;;7.38;100.00;101995.78;5016760;28;20047;-44
2022/06/02 03:05:42;;;;;;;33.17;17.75;;;;;;;7.41;100.00;101995.56;5016981;28;20029;-46
2022/06/02 03:08:17;;;;;;;31.25;17.17;;;;;;;7.44;100.00;101998.00;5015890;28;20337;-45
2022/06/02 03:10:45;;;;;;;31.67;17.70;;;;;;;7.51;100.00;101999.22;5016215;28;20101;-43
2022/06/02 03:13:38;;;;;;;31.83;17.20;;;;;;;7.52;100.00;102002.72;5015859;28;20151;-46
2022/06/02 03:16:12;;;;;;;31.38;17.70;;;;;;;7.52;100.00;102006.25;5016801;28;20024;-45
2022/06/02 03:18:45;;;;;;;36.70;18.80;;;;;;;7.50;100.00;102005.50;5016712;28;20030;-48
2022/06/02 03:21:18;;;;;;;32.72;17.70;;;;;;;7.50;100.00;102007.31;5017222;28;20025;-43
2022/06/02 03:23:55;;;;;;;36.42;19.13;;;;;;;7.54;100.00;102011.47;5017296;28;20038;-47
2022/06/02 03:26:31;;;;;;;35.88;20.30;;;;;;;7.53;100.00;102020.38;5015627;28;20176;-46
2022/06/02 03:29:14;;;;;;;36.15;19.33;;;;;;;7.51;100.00;102011.69;5015684;28;20110;-47
2022/06/02 03:31:50;;;;;;;35.67;19.50;;;;;;;7.46;100.00;102012.84;5016326;28;20223;-44
2022/06/02 03:34:42;;;;;;;33.90;18.67;;;;;;;7.45;100.00;102020.94;5016336;28;20017;-44
2022/06/02 03:37:34;;;;;;;35.53;18.75;;;;;;;7.49;100.00;102021.59;5015778;28;20061;-44
2022/06/02 03:40:34;;;;;;;36.85;19.15;;;;;;;7.49;100.00;102022.41;5016011;28;20044;-44
2022/06/02 03:43:34;;;;;;;37.63;18.83;;;;;;;7.46;100.00;102031.44;4931973;28;20421;-44
2022/06/02 03:46:19;;;;;;;33.78;19.42;;;;;;;7.45;100.00;102028.91;4973812;28;20136;-49
2022/06/02 03:49:08;;;;;;;30.90;18.65;;;;;;;7.45;100.00;102036.88;5016665;28;20687;-45
2022/06/02 03:52:11;;;;;;;36.00;19.23;;;;;;;7.47;100.00;102032.31;5016214;28;20034;-45
2022/06/02 03:54:51;;;;;;;38.30;20.00;;;;;;;7.46;100.00;102042.09;5016759;28;20395;-47
2022/06/02 03:57:28;;;;;;;35.03;19.48;;;;;;;7.50;100.00;102028.56;5015949;28;20353;-48
2022/06/02 04:00:09;;;;;;;45.22;21.80;;;;;;;7.56;100.00;102031.63;5017730;28;20029;-44
2022/06/02 04:02:54;;;;;;;42.65;22.35;;;;;;;7.57;100.00;102038.66;5020056;28;20041;-45
2022/06/02 04:05:30;;;;;;;36.40;21.38;;;;;;;7.52;100.00;102045.25;5019976;28;20228;-45
2022/06/02 04:08:08;;;;;;;34.35;19.75;;;;;;;7.51;100.00;102038.25;5019614;28;20025;-43
2022/06/02 04:10:46;;;;;;;35.40;20.35;;;;;;;7.57;100.00;102038.66;5020082;28;20018;-45
2022/06/02 04:16:27;;;;;;;34.08;21.05;;;;;;;7.69;100.00;102044.91;5020399;28;20300;-43
2022/06/02 04:22:38;;;;;;;39.25;21.02;;;;;;;7.71;100.00;102045.63;5020152;28;20033;-44
2022/06/02 04:25:13;;;;;;;36.78;21.55;;;;;;;7.64;100.00;102053.19;5019792;28;20030;-44
2022/06/02 04:27:50;;;;;;;40.75;21.67;;;;;;;7.65;100.00;102054.91;5017803;28;20091;-45
2022/06/02 04:30:27;;;;;;;38.60;22.02;;;;;;;7.71;100.00;102061.59;5020284;28;20456;-45
2022/06/02 04:33:10;;;;;;;40.63;21.95;;;;;;;7.80;100.00;102058.22;5019867;28;20363;-45
2022/06/02 04:35:51;;;;;;;40.17;22.08;;;;;;;7.90;100.00;102061.06;5019386;28;20022;-44
2022/06/02 04:38:33;;;;;;;36.50;21.85;;;;;;;7.99;100.00;102070.16;5016894;28;20010;-45
2022/06/02 04:41:31;;;;;;;39.72;22.15;;;;;;;8.02;100.00;102072.63;5018370;28;20032;-43
2022/06/02 04:44:18;;;;;;;41.08;22.08;;;;;;;8.01;100.00;102070.91;5020643;28;20098;-48
2022/06/02 04:46:59;;;;;;;35.85;21.35;;;;;;;8.04;100.00;102073.34;5019686;28;20511;-46
2022/06/02 04:49:40;;;;;;;40.75;22.27;;;;;;;8.11;100.00;102068.41;5018438;28;20579;-45
2022/06/02 04:52:25;;;;;;;38.22;21.67;;;;;;;8.22;100.00;102084.44;5022572;28;20025;-44
2022/06/02 04:55:22;;;;;;;44.75;25.77;;;;;;;8.30;100.00;102079.38;5035165;28;20287;-45
2022/06/02 04:58:00;;;;;;;46.70;24.83;;;;;;;8.37;100.00;102077.94;5011094;28;20429;-45
2022/06/02 05:00:39;;;;;;;45.13;25.63;;;;;;;8.43;100.00;102075.81;5018288;28;20025;-44
2022/06/02 05:03:20;;;;;;;53.63;26.90;;;;;;;8.50;100.00;102077.03;5025678;28;20491;-43
2022/06/02 05:06:33;;;;;;;53.20;27.57;;;;;;;8.63;100.00;102082.28;5019331;28;20104;-44
2022/06/02 05:09:17;;;;;;;47.85;25.73;;;;;;;8.70;100.00;102084.34;5012078;28;20175;-45
2022/06/02 05:12:00;;;;;;;51.05;27.00;;;;;;;8.77;100.00;102084.72;5026308;28;20030;-47
2022/06/02 05:14:25;;;;;;;53.50;29.02;;;;;;;8.84;100.00;102082.44;5018795;28;20052;-45
2022/06/02 05:17:02;;;;;;;55.80;29.05;;;;;;;8.88;100.00;102083.91;5019158;28;20492;-43
2022/06/02 05:19:42;;;;;;;51.38;28.88;;;;;;;8.96;100.00;102084.13;5018723;28;20033;-44
2022/06/02 05:22:36;;;;;;;48.63;27.80;;;;;;;9.02;100.00;102089.00;5011775;28;20123;-45
2022/06/02 05:25:32;;;;;;;52.38;28.83;;;;;;;9.10;100.00;102081.25;5018246;28;20498;-45
2022/06/02 05:28:43;;;;;;;49.83;27.95;;;;;;;9.14;100.00;102089.84;5017769;28;20577;-45
2022/06/02 05:31:30;;;;;;;57.23;30.00;;;;;;;9.13;100.00;102085.47;5028665;28;20032;-43
2022/06/02 05:34:43;;;;;;;55.47;30.67;;;;;;;9.15;100.00;102088.88;5016822;28;20276;-45
2022/06/02 05:37:33;;;;;;;52.33;29.58;;;;;;;9.23;100.00;102089.13;5014245;28;20503;-46
2022/06/02 05:40:14;;;;;;;53.85;29.85;;;;;;;9.32;100.00;102093.72;5021050;28;20076;-44
2022/06/02 05:42:54;;;;;;;61.47;32.80;;;;;;;9.36;100.00;102094.31;5031848;28;20550;-44
2022/06/02 05:45:53;;;;;;;60.03;32.58;;;;;;;9.42;100.00;102092.97;5020703;28;20457;-45
2022/06/02 05:48:45;;;;;;;58.38;31.38;;;;;;;9.51;100.00;102101.09;5006276;28;20036;-44
2022/06/02 05:51:24;;;;;;;56.30;31.83;;;;;;;9.64;100.00;102095.63;5018536;28;20041;-46
2022/06/02 05:54:18;;;;;;;59.78;31.35;;;;;;;9.75;100.00;102097.41;5017773;28;20049;-48
2022/06/02 05:57:04;;;;;;;55.60;30.70;;;;;;;9.88;100.00;102103.44;5018314;28;20028;-46
2022/06/02 05:59:50;;;;;;;61.15;31.05;;;;;;;10.00;100.00;102106.94;5017512;28;20135;-44
2022/06/02 06:02:43;;;;;;;59.65;32.72;;;;;;;10.13;100.00;102097.91;5017563;28;20127;-45
2022/06/02 06:05:50;;;;;;;55.72;30.95;;;;;;;10.29;100.00;102103.66;5017647;28;20029;-46
2022/06/02 06:08:21;;;;;;;58.90;32.17;;;;;;;10.46;100.00;102110.28;5024133;28;20088;-44
2022/06/02 06:11:04;;;;;;;;;;;;;;;10.61;100.00;102103.66;5017578;28;20047;-47
2022/06/02 06:13:56;;;;;;;57.40;29.85;;;;;;;10.80;100.00;102108.28;5016832;28;20291;-45
2022/06/02 06:16:35;;;;;;;53.28;27.63;;;;;;;10.95;100.00;102111.47;5007962;28;20021;-45
2022/06/02 06:19:19;;;;;;;48.95;28.55;;;;;;;11.09;100.00;102117.44;5016574;28;20025;-44
2022/06/02 06:22:07;;;;;;;54.22;26.95;;;;;;;11.19;100.00;102118.34;5021074;28;20436;-48
2022/06/02 06:25:26;;;;;;;52.15;27.40;;;;;;;11.37;100.00;102132.78;5014777;28;20439;-46
2022/06/02 06:28:10;;;;;;;46.33;26.55;;;;;;;11.53;100.00;102128.75;4993922;28;20523;-44
2022/06/02 06:31:01;;;;;;;43.22;25.33;;;;;;;11.66;100.00;102134.69;5012938;28;20060;-45
2022/06/02 06:34:06;;;;;;;49.85;25.67;;;;;;;11.82;100.00;102133.34;5008203;28;20424;-43
2022/06/02 06:36:56;;;;;;;44.47;25.10;;;;;;;12.03;100.00;102135.91;5017518;28;20383;-44
2022/06/02 06:39:53;;;;;;;44.53;27.27;;;;;;;12.22;100.00;102137.75;5017269;28;20345;-44
2022/06/02 06:42:40;;;;;;;44.38;27.05;;;;;;;12.23;100.00;102142.97;5007464;28;20384;-44
2022/06/02 06:45:18;;;;;;;43.00;25.98;;;;;;;12.35;100.00;102142.84;5017731;28;20033;-46
2022/06/02 06:47:51;;;;;;;45.33;25.90;;;;;;;12.50;100.00;102144.97;5027820;28;20094;-43
2022/06/02 06:50:25;;;;;;;43.13;26.73;;;;;;;12.56;100.00;102148.06;5027810;28;20162;-44
2022/06/02 06:53:05;;;;;;;43.58;25.55;;;;;;;12.62;100.00;102150.19;5016749;28;20033;-43
2022/06/02 06:55:39;;;;;;;44.00;25.50;;;;;;;12.83;100.00;102147.31;5016896;28;20027;-44
2022/06/02 06:58:20;;;;;;;38.00;23.40;;;;;;;13.15;100.00;102146.13;5019014;28;20029;-44
2022/06/02 07:00:55;;;;;;;32.75;21.33;;;;;;;13.53;100.00;102161.28;5028434;28;20025;-43
2022/06/02 07:03:26;;;;;;;31.25;19.95;;;;;;;13.79;100.00;102160.56;5023597;28;20032;-44
2022/06/02 07:05:57;;;;;;;30.92;20.30;;;;;;;14.09;100.00;102158.56;5032122;28;20506;-44
2022/06/02 07:08:33;;;;;;;28.80;19.85;;;;;;;14.28;100.00;102169.16;5035485;28;20429;-44
2022/06/02 07:14:20;;;;;;;28.73;18.30;;;;;;;14.53;100.00;102164.00;4994581;28;20529;-44
2022/06/02 07:16:55;;;;;;;31.27;20.02;;;;;;;14.32;100.00;102172.38;5014689;28;20032;-47
2022/06/02 07:19:40;;;;;;;30.52;19.35;;;;;;;14.24;100.00;102173.16;5016177;28;20017;-47
2022/06/02 07:22:12;;;;;;;30.75;18.58;;;;;;;14.12;100.00;102177.91;5028358;28;20108;-44
2022/06/02 07:25:01;;;;;;;31.27;18.23;;;;;;;13.96;100.00;102177.72;5029442;28;20055;-44
2022/06/02 07:27:32;;;;;;;27.88;17.70;;;;;;;13.86;100.00;102184.97;5017073;28;20099;-48
2022/06/02 07:30:33;;;;;;;28.77;16.77;;;;;;;13.70;100.00;102183.78;5017434;28;20129;-43
2022/06/02 07:33:19;;;;;;;25.00;15.53;;;;;;;13.62;100.00;102187.22;5015680;28;20021;-45
2022/06/02 07:35:51;;;;;;;25.05;15.38;;;;;;;13.68;99.75;102198.34;5016333;28;20263;-44
2022/06/02 07:38:35;;;;;;;23.30;16.20;;;;;;;14.03;99.76;102188.69;5021941;28;20499;-47
2022/06/02 07:41:16;;;;;;;28.63;16.90;;;;;;;14.23;100.00;102189.44;5021851;28;20112;-44
2022/06/02 07:44:10;;;;;;;24.83;17.48;;;;;;;14.48;98.09;102191.34;5025798;28;20028;-46
2022/06/02 07:47:03;;;;;;;26.15;17.23;;;;;;;14.79;100.00;102193.66;5038909;28;20037;-46
2022/06/02 07:49:46;;;;;;;28.33;17.30;;;;;;;15.08;96.14;102203.28;5024022;28;20414;-46
2022/06/02 07:52:35;;;;;;;24.98;16.05;;;;;;;15.37;94.93;102191.38;5019804;28;20041;-44
2022/06/02 07:55:06;;;;;;;25.00;16.23;;;;;;;15.62;91.59;102190.47;5020295;28;20391;-45
2022/06/02 07:58:04;;;;;;;24.63;16.52;;;;;;;15.97;96.06;102198.53;5023396;28;20478;-43
2022/06/02 08:00:46;;;;;;;23.10;16.40;;;;;;;16.32;94.06;102196.63;5014532;28;20033;-42
2022/06/02 08:03:45;;;;;;;29.50;15.25;;;;;;;16.22;88.44;102194.94;5018588;28;20026;-46
2022/06/02 08:06:35;;;;;;;21.85;14.32;;;;;;;15.95;90.23;102193.31;5019505;28;20083;-48
2022/06/02 08:09:19;;;;;;;24.73;14.65;;;;;;;15.59;87.90;102196.19;5030953;28;20037;-45
2022/06/02 08:11:54;;;;;;;20.80;15.07;;;;;;;15.11;88.31;102192.22;5013670;28;20033;-44
2022/06/02 08:14:29;;;;;;;20.08;14.40;;;;;;;14.80;89.41;102192.66;5019801;28;20082;-44
2022/06/02 08:17:16;;;;;;;24.20;15.95;;;;;;;14.61;91.77;102200.91;5018578;28;20037;-43
2022/06/02 08:20:27;;;;;;;19.67;14.32;;;;;;;14.40;91.44;102199.34;5019257;28;20127;-43
2022/06/02 08:22:52;;;;;;;20.40;15.45;;;;;;;14.31;93.90;102203.78;4950458;28;20417;-45
2022/06/02 08:25:23;;;;;;;22.03;15.23;;;;;;;14.32;93.37;102197.44;4999731;28;20049;-44
2022/06/02 08:27:59;;;;;;;24.63;17.08;;;;;;;14.33;94.54;102192.88;5019279;28;20295;-44
2022/06/02 08:30:30;;;;;;;23.80;16.83;;;;;;;14.26;92.93;102191.81;5019185;28;20021;-43
2022/06/02 08:33:12;;;;;;;23.70;15.90;;;;;;;14.17;94.53;102193.53;5018560;28;20036;-47
2022/06/02 08:35:50;;;;;;;22.98;15.68;;;;;;;14.02;93.69;102190.56;5019106;28;20132;-43
2022/06/02 08:38:31;;;;;;;31.90;17.38;;;;;;;14.40;93.45;102190.44;5018187;28;20225;-46
2022/06/02 08:41:31;;;;;;;23.80;15.77;;;;;;;14.85;92.82;102194.88;5018086;28;20387;-44
2022/06/02 08:44:20;;;;;;;23.48;14.57;;;;;;;15.18;90.52;102192.44;5017969;28;20488;-46
2022/06/02 08:47:22;;;;;;;21.63;13.88;;;;;;;15.50;88.22;102197.16;5027032;28;20021;-43
2022/06/02 08:50:20;;;;;;;18.60;12.68;;;;;;;15.69;81.51;102198.75;5037258;28;20060;-44
2022/06/02 08:53:17;;;;;;;21.92;14.23;;;;;;;16.07;83.25;102199.25;5010352;28;20687;-46
2022/06/02 08:55:53;;;;;;;21.98;15.45;;;;;;;16.51;83.78;102201.69;5017360;28;20021;-43
2022/06/02 08:58:39;;;;;;;23.90;15.10;;;;;;;16.85;79.01;102216.06;5018678;28;20104;-49
2022/06/02 09:01:33;;;;;;;20.48;13.43;;;;;;;17.08;80.20;102219.78;5019005;28;20088;-42
2022/06/02 09:04:23;;;;;;;19.00;13.43;;;;;;;17.22;78.80;102220.94;5017858;28;20048;-43
2022/06/02 09:07:26;;;;;;;17.05;12.57;;;;;;;17.31;76.45;102214.50;5018962;28;20435;-48
2022/06/02 09:10:10;;;;;;;15.23;11.75;;;;;;;17.61;75.69;102212.06;5012764;28;20026;-47
2022/06/02 09:13:03;;;;;;;14.07;11.15;;;;;;;17.88;74.84;102213.50;5005676;28;20040;-43
2022/06/02 09:16:06;;;;;;;14.77;10.60;;;;;;;18.14;74.46;102209.63;5018947;28;20029;-46
2022/06/02 09:19:08;;;;;;;16.55;10.63;;;;;;;18.32;70.22;102203.97;5018171;28;20159;-43
2022/06/02 09:21:59;;;;;;;22.88;11.30;;;;;;;18.41;69.49;102199.31;5018205;28;20033;-46
2022/06/02 09:24:32;;;;;;;14.98;10.93;;;;;;;17.83;66.75;102207.75;5018316;28;20120;-44
2022/06/02 09:27:24;;;;;;;15.07;11.65;;;;;;;17.60;73.76;102206.81;5017293;28;20046;-43
2022/06/02 09:30:18;;;;;;;16.45;12.38;;;;;;;17.15;71.35;102215.38;5017911;28;20045;-44
2022/06/02 09:33:33;;;;;;;19.98;11.98;;;;;;;17.23;73.50;102211.81;5018135;28;20443;-45
2022/06/02 09:36:13;;;;;;;18.23;11.45;;;;;;;17.69;74.26;102206.63;5017973;28;20036;-46
2022/06/02 09:38:47;;;;;;;14.38;11.15;;;;;;;17.92;69.57;102196.91;5018717;28;20087;-44
2022/06/02 09:41:25;;;;;;;14.27;10.18;;;;;;;18.04;66.19;102199.06;5017337;28;20116;-45
2022/06/02 09:44:15;;;;;;;15.60;11.20;;;;;;;17.92;65.46;102191.53;5017560;28;20499;-44
2022/06/02 09:46:43;;;;;;;14.85;10.55;;;;;;;18.08;70.33;102197.69;5018604;28;20021;-46
2022/06/02 09:49:26;;;;;;;14.60;11.55;;;;;;;18.12;64.04;102192.75;5017143;28;20312;-43
2022/06/02 09:52:10;;;;;;;14.88;11.20;;;;;;;17.83;66.79;102188.81;5018082;28;20438;-44
2022/06/02 09:55:00;;;;;;;19.05;11.13;;;;;;;17.63;69.28;102188.41;5017177;28;20079;-49
2022/06/02 09:57:57;;;;;;;18.73;11.57;;;;;;;17.82;68.55;102183.59;5017991;28;20040;-43
2022/06/02 10:00:42;;;;;;;21.13;12.70;;;;;;;17.95;64.08;102193.88;5006618;28;20036;-48
2022/06/02 10:03:27;;;;;;;19.33;12.60;;;;;;;18.10;64.38;102183.97;5017207;28;20029;-44
2022/06/02 10:06:20;;;;;;;17.98;11.60;;;;;;;18.69;69.22;102186.09;5015563;28;20132;-44
2022/06/02 10:09:21;;;;;;;17.13;12.10;;;;;;;19.28;63.69;102193.53;5016522;28;20488;-46
2022/06/02 10:12:54;;;;;;;22.48;12.23;;;;;;;19.34;62.82;102200.06;4948974;28;20107;-45
2022/06/02 10:15:13;;;;;;;19.45;12.57;;;;;;;19.33;60.78;102184.81;5016495;28;20040;-45
2022/06/02 10:17:56;;;;;;;17.75;13.05;;;;;;;19.11;62.48;102189.28;5017414;28;20025;-44
2022/06/02 10:20:39;;;;;;;17.17;12.60;;;;;;;19.11;63.73;102186.56;5016426;28;20033;-48
2022/06/02 10:23:32;;;;;;;17.88;12.50;;;;;;;19.41;61.96;102189.31;5017222;28;20345;-46
2022/06/02 10:26:46;;;;;;;21.50;12.23;;;;;;;19.70;59.63;102185.75;5015661;28;20336;-45
2022/06/02 10:29:21;;;;;;;13.85;10.65;;;;;;;20.19;54.77;102184.25;4955336;28;20043;-44
2022/06/02 10:31:55;;;;;;;18.73;11.68;;;;;;;20.40;55.23;102178.00;5000087;28;20137;-43
2022/06/02 10:35:15;;;;;;;13.45;10.93;;;;;;;20.57;58.60;102187.56;5014819;28;20026;-43
2022/06/02 10:37:55;;;;;;;19.48;11.05;;;;;;;20.64;57.80;102187.66;4935867;28;20503;-45
2022/06/02 10:40:35;;;;;;;18.10;12.80;;;;;;;20.63;51.22;102185.97;5016797;28;20029;-43
2022/06/02 10:43:30;;;;;;;16.42;11.98;;;;;;;20.45;57.42;102183.69;5014893;28;20052;-47
2022/06/02 10:46:31;;;;;;;15.18;11.43;;;;;;;20.26;59.20;102177.03;5017012;28;20033;-46
2022/06/02 10:49:15;;;;;;;18.15;11.73;;;;;;;20.04;56.94;102173.44;5016647;28;20116;-44
2022/06/02 10:52:15;;;;;;;17.70;11.43;;;;;;;20.44;61.99;102171.16;5016970;28;20543;-43
2022/06/02 10:54:50;;;;;;;17.33;11.13;;;;;;;20.71;48.68;102172.25;4984700;28;20196;-49
2022/06/02 10:57:25;;;;;;;14.27;9.75;;;;;;;20.95;52.31;102168.25;5031303;28;20096;-44
2022/06/02 11:00:27;;;;;;;15.32;9.90;;;;;;;21.28;53.76;102173.06;5033138;28;20500;-44
2022/06/02 11:03:31;;;;;;;15.15;11.35;;;;;;;21.51;52.72;102161.09;5032046;28;20464;-45
2022/06/02 11:06:33;;;;;;;15.00;11.50;;;;;;;21.42;53.83;102158.53;5028341;28;20112;-45
2022/06/02 11:09:20;;;;;;;18.33;9.90;;;;;;;21.89;53.13;102166.06;5014871;28;20452;-45
2022/06/02 11:12:07;;;;;;;13.98;9.98;;;;;;;22.16;49.31;102156.09;5016098;28;20029;-45
2022/06/02 11:15:15;;;;;;;14.88;11.15;;;;;;;22.28;46.76;102153.63;5007725;28;20056;-46
2022/06/02 11:18:06;;;;;;;16.38;10.73;;;;;;;22.13;45.68;102161.94;5015690;28;20030;-45
2022/06/02 11:21:25;;;;;;;14.98;10.90;;;;;;;22.60;50.47;102154.69;5016810;28;20440;-47
2022/06/02 11:24:08;;;;;;;12.52;9.20;;;;;;;22.81;46.74;102164.56;4974178;28;20133;-44
2022/06/02 11:26:52;;;;;;;12.85;9.40;;;;;;;23.05;41.11;102154.88;5021855;28;20104;-43
2022/06/02 11:29:55;;;;;;;14.43;9.70;;;;;;;23.46;45.56;102151.00;5015731;28;20143;-44
2022/06/02 11:32:33;;;;;;;14.57;9.30;;;;;;;23.20;42.09;102151.94;5005512;28;20417;-45
2022/06/02 11:35:08;;;;;;;11.40;7.95;;;;;;;23.25;45.17;102137.66;5016599;28;20021;-44
2022/06/02 11:37:45;;;;;;;10.55;7.60;;;;;;;23.21;40.60;102136.41;5018250;28;20022;-44
2022/06/02 11:40:33;;;;;;;8.73;7.05;;;;;;;23.34;40.65;102143.72;5034184;28;20479;-46
2022/06/02 11:43:14;;;;;;;10.02;7.47;;;;;;;23.38;40.70;102147.69;5016588;28;20496;-48
2022/06/02 11:45:58;;;;;;;10.27;7.45;;;;;;;23.43;41.87;102143.25;5023852;28;20044;-46
2022/06/02 11:48:49;;;;;;;8.52;7.18;;;;;;;23.49;39.04;102135.25;5025904;28;20079;-46
2022/06/02 11:51:49;;;;;;;12.65;7.75;;;;;;;23.60;41.88;102131.88;5034533;28;20386;-46
2022/06/02 11:55:01;;;;;;;11.65;9.50;;;;;;;23.82;41.20;102135.16;4993899;28;20056;-45
2022/06/02 11:57:33;;;;;;;11.30;8.75;;;;;;;23.43;36.68;102132.34;5023314;28;20035;-43
2022/06/02 12:00:24;;;;;;;11.98;8.50;;;;;;;22.90;38.78;102137.91;5020651;28;20105;-45
2022/06/02 12:03:11;;;;;;;10.18;8.07;;;;;;;22.43;40.71;102134.38;5024236;28;20021;-48
2022/06/02 12:06:00;;;;;;;8.43;6.88;;;;;;;22.51;44.21;102131.47;5030222;28;20102;-44
2022/06/02 12:08:50;;;;;;;10.45;8.73;;;;;;;22.30;43.27;102129.75;5020061;28;20041;-48
2022/06/02 12:11:37;;;;;;;12.93;8.95;;;;;;;22.52;44.20;102127.66;5020055;28;20432;-44
2022/06/02 12:14:13;;;;;;;13.48;10.23;;;;;;;22.33;42.31;102124.72;5027647;28;20052;-45
2022/06/02 12:17:12;;;;;;;14.18;10.13;;;;;;;22.41;41.59;102117.44;5017810;28;20071;-43
2022/06/02 12:20:02;;;;;;;12.18;8.55;;;;;;;22.24;43.75;102116.97;5019436;28;20033;-45
2022/06/02 12:22:52;;;;;;;12.15;8.70;;;;;;;22.25;45.00;102113.19;5019067;28;20040;-44
2022/06/02 12:25:56;;;;;;;11.57;9.27;;;;;;;22.70;45.39;102116.16;5014564;28;20080;-47
2022/06/02 12:28:43;;;;;;;12.60;9.65;;;;;;;22.72;41.30;102105.88;5032609;28;20303;-44
2022/06/02 12:31:45;;;;;;;13.85;8.13;;;;;;;22.97;42.42;102097.88;5020667;28;20167;-45
2022/06/02 12:34:13;;;;;;;13.80;8.10;;;;;;;23.12;39.20;102103.09;5020093;28;20416;-44
2022/06/02 12:36:47;;;;;;;9.65;6.63;;;;;;;23.29;41.50;102092.56;5019998;28;20025;-49
2022/06/02 12:39:36;;;;;;;10.10;6.68;;;;;;;23.46;41.17;102088.28;5019752;28;20448;-47
2022/06/02 12:42:28;;;;;;;10.93;7.95;;;;;;;23.50;39.40;102096.88;5011013;28;20029;-45
2022/06/02 12:45:44;;;;;;;12.70;8.15;;;;;;;23.50;38.26;102091.41;5032866;28;20041;-46
2022/06/02 12:48:43;;;;;;;8.95;7.10;;;;;;;23.67;41.00;102083.56;5003987;28;20063;-44